createdAt,value
2024-02-14T00:00:02.901Z,9.00
2024-02-14T00:02:37.507Z,9.80
2024-02-14T00:05:12.103Z,8.10
2024-02-14T00:07:44.863Z,9.90
2024-02-14T00:10:18.068Z,8.30
2024-02-14T00:12:50.876Z,9.10
2024-02-14T00:15:23.401Z,10.10
2024-02-14T00:17:58.816Z,10.00
2024-02-14T00:20:31.367Z,9.60
2024-02-14T00:23:03.897Z,15.90
2024-02-14T00:25:36.254Z,12.30
2024-02-14T00:28:09.825Z,11.60
2024-02-14T00:30:42.193Z,9.70
2024-02-14T00:33:14.839Z,11.20
2024-02-14T00:35:47.359Z,9.20
2024-02-14T00:38:20.424Z,7.20
2024-02-14T00:40:52.698Z,8.00
2024-02-14T00:43:25.018Z,7.60
2024-02-14T00:45:58.339Z,10.00
2024-02-14T00:48:30.734Z,8.80
2024-02-14T00:51:03.552Z,6.50
2024-02-14T00:53:36.387Z,8.40
2024-02-14T00:56:13.765Z,8.20
2024-02-14T00:58:46.477Z,7.00
2024-02-14T01:01:18.935Z,8.40
2024-02-14T01:03:51.902Z,7.40
2024-02-14T01:06:26.115Z,7.30
2024-02-14T01:08:58.969Z,9.40
2024-02-14T01:11:31.577Z,8.00
2024-02-14T01:14:04.202Z,11.00
2024-02-14T01:16:44.115Z,6.10
2024-02-14T01:19:16.641Z,10.90
2024-02-14T01:21:49.956Z,8.60
2024-02-14T01:24:23.539Z,7.40
2024-02-14T01:26:57.361Z,6.80
2024-02-14T01:29:29.800Z,8.70
2024-02-14T01:32:02.435Z,8.50
2024-02-14T01:34:35.069Z,7.10
2024-02-14T01:37:07.472Z,9.80
2024-02-14T01:39:39.812Z,8.70
2024-02-14T01:42:12.248Z,8.20
2024-02-14T01:44:45.039Z,8.50
2024-02-14T01:47:20.306Z,6.80
2024-02-14T01:49:52.759Z,8.30
2024-02-14T01:52:25.168Z,8.50
2024-02-14T01:54:58.255Z,8.60
2024-02-14T01:57:31.109Z,10.30
2024-02-14T02:00:09.906Z,7.10
2024-02-14T02:02:42.490Z,8.60
2024-02-14T02:05:14.959Z,10.60
2024-02-14T02:07:50.052Z,13.50
2024-02-14T02:10:26.851Z,11.90
2024-02-14T02:13:03.352Z,7.00
2024-02-14T02:15:35.801Z,9.20
2024-02-14T02:18:09.107Z,13.20
2024-02-14T02:20:44.209Z,9.30
2024-02-14T02:23:16.993Z,9.20
2024-02-14T02:25:49.536Z,9.50
2024-02-14T02:28:21.879Z,13.40
2024-02-14T02:30:57.435Z,9.50
2024-02-14T02:33:31.902Z,8.90
2024-02-14T02:36:04.700Z,8.90
2024-02-14T02:38:38.007Z,10.10
2024-02-14T02:41:10.514Z,10.30
2024-02-14T02:43:42.703Z,10.60
2024-02-14T02:46:15.696Z,12.20
2024-02-14T02:48:49.272Z,11.80
2024-02-14T02:51:21.821Z,9.80
2024-02-14T02:53:55.700Z,9.60
2024-02-14T02:56:29.173Z,10.70
2024-02-14T02:59:04.585Z,9.60
2024-02-14T03:01:41.551Z,9.70
2024-02-14T03:04:16.255Z,12.00
2024-02-14T03:06:48.768Z,9.30
2024-02-14T03:09:21.065Z,8.40
2024-02-14T03:11:53.790Z,7.70
2024-02-14T03:14:26.768Z,9.40
2024-02-14T03:17:01.358Z,11.90
2024-02-14T03:19:39.610Z,10.80
2024-02-14T03:22:12.528Z,11.70
2024-02-14T03:24:45.278Z,9.10
2024-02-14T03:27:18.725Z,8.40
2024-02-14T03:29:53.144Z,12.10
2024-02-14T03:32:25.545Z,12.60
2024-02-14T03:34:57.980Z,9.90
2024-02-14T03:37:30.593Z,15.30
2024-02-14T03:40:09.469Z,10.20
2024-02-14T03:42:41.839Z,14.20
2024-02-14T03:45:15.603Z,11.10
2024-02-14T03:47:47.955Z,11.50
2024-02-14T03:50:20.617Z,14.00
2024-02-14T03:52:52.915Z,11.30
2024-02-14T03:55:26.185Z,12.50
2024-02-14T03:57:58.730Z,15.10
2024-02-14T04:00:32.611Z,10.80
2024-02-14T04:03:08.562Z,11.70
2024-02-14T04:05:42.147Z,13.00
2024-02-14T04:08:14.592Z,13.60
2024-02-14T04:10:47.494Z,14.00
2024-02-14T04:13:20.375Z,14.40
2024-02-14T04:15:53.955Z,12.10
2024-02-14T04:18:27.036Z,11.90
2024-02-14T04:21:00.918Z,12.70
2024-02-14T04:23:34.589Z,15.20
2024-02-14T04:26:07.058Z,12.00
2024-02-14T04:28:41.855Z,14.20
2024-02-14T04:31:14.028Z,11.30
2024-02-14T04:33:51.014Z,13.00
2024-02-14T04:36:24.793Z,15.30
2024-02-14T04:38:58.234Z,14.10
2024-02-14T04:41:30.931Z,13.10
2024-02-14T04:44:03.390Z,14.20
2024-02-14T04:46:36.151Z,14.00
2024-02-14T04:49:08.731Z,15.10
2024-02-14T04:51:41.446Z,11.80
2024-02-14T04:54:15.036Z,12.10
2024-02-14T04:56:50.419Z,13.50
2024-02-14T04:59:24.769Z,13.20
2024-02-14T05:01:57.984Z,13.60
2024-02-14T05:04:31.134Z,12.50
2024-02-14T05:07:03.509Z,13.40
2024-02-14T05:09:36.017Z,11.20
2024-02-14T05:12:12.286Z,10.50
2024-02-14T05:14:44.977Z,10.30
2024-02-14T05:17:18.198Z,13.00
2024-02-14T05:19:50.870Z,10.70
2024-02-14T05:22:24.071Z,11.80
2024-02-14T05:24:56.375Z,14.20
2024-02-14T05:27:31.421Z,9.00
2024-02-14T05:30:06.918Z,10.00
2024-02-14T05:32:41.280Z,14.20
2024-02-14T05:35:14.215Z,11.00
2024-02-14T05:37:52.329Z,11.20
2024-02-14T05:40:25.769Z,11.90
2024-02-14T05:42:58.481Z,12.70
2024-02-14T05:45:30.834Z,11.50
2024-02-14T05:48:03.162Z,11.00
2024-02-14T05:50:36.588Z,12.70
2024-02-14T05:53:09.110Z,10.50
2024-02-14T05:55:41.424Z,11.70
2024-02-14T05:58:14.065Z,10.50
2024-02-14T06:00:46.628Z,10.30
2024-02-14T06:03:19.918Z,11.60
2024-02-14T06:05:52.384Z,10.90
2024-02-14T06:08:25.457Z,9.60
2024-02-14T06:10:57.947Z,15.60
2024-02-14T06:13:32.658Z,11.00
2024-02-14T06:16:06.715Z,11.20
2024-02-14T06:18:40.983Z,12.40
2024-02-14T06:21:13.605Z,13.80
2024-02-14T06:23:48.307Z,11.30
2024-02-14T06:26:20.764Z,11.30
2024-02-14T06:28:55.875Z,13.40
2024-02-14T06:31:28.986Z,14.60
2024-02-14T06:34:01.979Z,12.40
2024-02-14T06:36:34.913Z,9.00
2024-02-14T06:39:09.398Z,14.20
2024-02-14T06:41:42.786Z,13.20
2024-02-14T06:44:16.331Z,11.70
2024-02-14T06:46:48.627Z,10.50
2024-02-14T06:49:21.458Z,12.00
2024-02-14T06:51:54.008Z,13.90
2024-02-14T06:54:26.272Z,16.60
2024-02-14T06:56:58.546Z,13.20
2024-02-14T06:59:31.227Z,11.10
2024-02-14T07:02:13.027Z,11.50
2024-02-14T07:04:46.541Z,9.90
2024-02-14T07:07:19.233Z,12.90
2024-02-14T07:09:54.901Z,10.60
2024-02-14T07:12:28.222Z,12.80
2024-02-14T07:15:00.683Z,10.10
2024-02-14T07:17:33.387Z,8.20
2024-02-14T07:20:07.231Z,10.90
2024-02-14T07:22:39.840Z,12.90
2024-02-14T07:25:12.905Z,11.60
2024-02-14T07:27:47.263Z,9.40
2024-02-14T07:30:20.234Z,11.30
2024-02-14T07:32:53.107Z,10.50
2024-02-14T07:35:27.121Z,11.10
2024-02-14T07:37:59.548Z,10.30
2024-02-14T07:40:33.336Z,11.30
2024-02-14T07:43:07.571Z,13.30
2024-02-14T07:45:39.854Z,10.40
2024-02-14T07:48:12.905Z,11.40
2024-02-14T07:50:45.872Z,15.60
2024-02-14T07:53:19.888Z,17.70
2024-02-14T07:55:53.346Z,12.90
2024-02-14T07:58:25.850Z,14.70
2024-02-14T08:00:58.273Z,16.60
2024-02-14T08:03:30.522Z,20.90
2024-02-14T08:06:03.210Z,15.30
2024-02-14T08:08:36.423Z,14.20
2024-02-14T08:11:09.166Z,16.20
2024-02-14T08:13:42.476Z,14.20
2024-02-14T08:16:14.795Z,14.00
2024-02-14T08:18:47.224Z,12.30
2024-02-14T08:21:20.443Z,9.80
2024-02-14T08:23:52.864Z,12.70
2024-02-14T08:26:25.630Z,13.90
2024-02-14T08:28:59.446Z,13.20
2024-02-14T08:31:34.005Z,15.70
2024-02-14T08:34:06.424Z,17.30
2024-02-14T08:36:42.116Z,13.30
2024-02-14T08:39:15.108Z,15.60
2024-02-14T08:41:48.453Z,14.90
2024-02-14T08:44:21.244Z,12.90
2024-02-14T08:46:55.526Z,17.50
2024-02-14T08:49:27.801Z,13.00
2024-02-14T08:52:00.100Z,15.30
2024-02-14T08:54:34.159Z,14.20
2024-02-14T08:57:07.033Z,13.60
2024-02-14T08:59:39.772Z,13.60
2024-02-14T09:02:12.105Z,12.30
2024-02-14T09:04:45.651Z,15.20
2024-02-14T09:07:18.567Z,10.20
2024-02-14T09:09:51.193Z,12.90
2024-02-14T09:12:23.986Z,12.80
2024-02-14T09:14:58.295Z,13.70
2024-02-14T09:17:31.795Z,12.40
2024-02-14T09:20:07.761Z,13.50
2024-02-14T09:22:42.487Z,15.20
2024-02-14T09:25:15.588Z,12.40
2024-02-14T09:27:49.013Z,12.50
2024-02-14T09:30:28.116Z,14.10
2024-02-14T09:33:08.173Z,11.70
2024-02-14T09:35:45.919Z,10.90
2024-02-14T09:38:18.702Z,14.90
2024-02-14T09:40:51.806Z,15.90
2024-02-14T09:43:30.806Z,11.90
2024-02-14T09:46:04.412Z,11.80
2024-02-14T09:48:41.129Z,12.00
2024-02-14T09:51:15.494Z,10.30
2024-02-14T09:53:49.337Z,10.80
2024-02-14T09:56:24.785Z,11.30
2024-02-14T09:58:58.306Z,12.70
2024-02-14T10:01:30.991Z,15.00
2024-02-14T10:04:04.473Z,10.70
2024-02-14T10:06:39.178Z,11.60
2024-02-14T10:09:12.238Z,15.50
2024-02-14T10:11:46.274Z,11.10
2024-02-14T10:14:20.439Z,11.30
2024-02-14T10:16:52.797Z,11.80
2024-02-14T10:19:25.870Z,11.40
2024-02-14T10:22:04.143Z,12.80
2024-02-14T10:24:36.651Z,12.10
2024-02-14T10:27:13.769Z,10.60
2024-02-14T10:29:46.121Z,11.60
2024-02-14T10:32:20.151Z,10.90
2024-02-14T10:34:52.609Z,10.30
2024-02-14T10:37:27.421Z,9.60
2024-02-14T10:40:03.097Z,9.00
2024-02-14T10:42:36.111Z,12.10
2024-02-14T10:45:10.538Z,11.60
2024-02-14T10:47:46.377Z,10.30
2024-02-14T10:50:20.627Z,11.50
2024-02-14T10:52:55.699Z,13.00
2024-02-14T10:55:35.579Z,12.30
2024-02-14T10:58:09.333Z,9.70
2024-02-14T11:00:43.640Z,11.50
2024-02-14T11:03:17.108Z,9.00
2024-02-14T11:05:51.311Z,11.90
2024-02-14T11:08:26.188Z,11.70
2024-02-14T11:11:00.949Z,12.90
2024-02-14T11:13:34.877Z,10.40
2024-02-14T11:16:12.315Z,13.10
2024-02-14T11:18:44.884Z,9.90
2024-02-14T11:21:21.608Z,11.50
2024-02-14T11:24:09.796Z,11.90
2024-02-14T11:26:48.445Z,10.30
2024-02-14T11:29:23.848Z,9.00
2024-02-14T11:32:04.354Z,11.40
2024-02-14T11:34:38.571Z,9.80
2024-02-14T11:37:16.394Z,11.00
2024-02-14T11:39:50.894Z,10.80
2024-02-14T11:42:27.083Z,11.40
2024-02-14T11:45:00.209Z,12.20
2024-02-14T11:47:33.288Z,11.80
2024-02-14T11:50:07.476Z,9.00
2024-02-14T11:52:39.786Z,8.70
2024-02-14T11:55:14.725Z,9.70
2024-02-14T11:57:49.396Z,7.90
2024-02-14T12:00:22.868Z,8.90
2024-02-14T12:02:56.281Z,8.50
2024-02-14T12:05:28.975Z,10.00
2024-02-14T12:08:02.149Z,11.00
2024-02-14T12:10:37.642Z,8.60
2024-02-14T12:13:13.212Z,9.00
2024-02-14T12:15:47.922Z,9.00
2024-02-14T12:18:21.923Z,7.50
2024-02-14T12:21:07.140Z,10.70
2024-02-14T12:23:40.248Z,9.50
2024-02-14T12:26:18.618Z,8.60
2024-02-14T12:28:54.672Z,9.10
2024-02-14T12:31:27.735Z,11.00
2024-02-14T12:34:03.864Z,9.40
2024-02-14T12:36:37.183Z,10.90
2024-02-14T12:39:14.056Z,10.90
2024-02-14T12:41:46.721Z,11.70
2024-02-14T12:44:19.882Z,11.30
2024-02-14T12:46:52.516Z,10.30
2024-02-14T12:49:27.426Z,11.90
2024-02-14T12:51:59.894Z,10.90
2024-02-14T12:54:33.757Z,9.90
2024-02-14T12:57:06.958Z,9.40
2024-02-14T12:59:39.272Z,11.20
2024-02-14T13:02:12.287Z,9.40
2024-02-14T13:04:45.325Z,10.70
2024-02-14T13:07:18.648Z,9.20
2024-02-14T13:09:52.482Z,12.20
2024-02-14T13:12:25.501Z,10.10
2024-02-14T13:14:57.926Z,12.90
2024-02-14T13:17:30.883Z,9.30
2024-02-14T13:20:05.034Z,10.60
2024-02-14T13:22:38.035Z,14.00
2024-02-14T13:25:12.144Z,10.50
2024-02-14T13:27:45.990Z,12.20
2024-02-14T13:30:20.235Z,9.90
2024-02-14T13:32:53.251Z,10.40
2024-02-14T13:35:25.985Z,10.50
2024-02-14T13:37:59.347Z,10.80
2024-02-14T13:40:31.773Z,10.20
2024-02-14T13:43:04.475Z,13.10
2024-02-14T13:45:45.235Z,14.10
2024-02-14T13:48:18.882Z,11.60
2024-02-14T13:50:52.747Z,9.50
2024-02-14T13:53:25.259Z,12.00
2024-02-14T13:55:57.956Z,12.50
2024-02-14T13:58:30.540Z,14.20
2024-02-14T14:01:03.077Z,13.40
2024-02-14T14:03:37.936Z,12.10
2024-02-14T14:06:11.341Z,13.80
2024-02-14T14:08:44.274Z,12.20
2024-02-14T14:11:16.795Z,11.50
2024-02-14T14:13:49.080Z,13.00
2024-02-14T14:16:23.078Z,11.20
2024-02-14T14:18:55.629Z,11.80
2024-02-14T14:21:28.100Z,10.40
2024-02-14T14:24:00.442Z,10.40
2024-02-14T14:26:33.108Z,11.00
2024-02-14T14:29:06.000Z,11.00
2024-02-14T14:31:38.400Z,9.40
2024-02-14T14:34:11.094Z,9.70
2024-02-14T14:36:43.454Z,13.00
2024-02-14T14:39:15.804Z,10.60
2024-02-14T14:41:48.160Z,12.80
2024-02-14T14:44:20.784Z,11.60
2024-02-14T14:46:53.123Z,10.70
2024-02-14T14:49:25.639Z,11.80
2024-02-14T14:51:58.803Z,16.30
2024-02-14T14:54:31.859Z,10.20
2024-02-14T14:57:10.961Z,10.70
2024-02-14T14:59:44.666Z,12.00
2024-02-14T15:02:17.193Z,11.20
2024-02-14T15:04:51.199Z,11.80
2024-02-14T15:07:23.720Z,11.30
2024-02-14T15:09:56.065Z,12.20
2024-02-14T15:12:28.323Z,10.30
2024-02-14T15:15:00.923Z,11.10
2024-02-14T15:17:33.319Z,11.50
2024-02-14T15:20:06.289Z,11.40
2024-02-14T15:22:38.758Z,13.30
2024-02-14T15:25:12.136Z,11.80
2024-02-14T15:27:55.713Z,13.50
2024-02-14T15:30:46.511Z,15.10
2024-02-14T15:33:25.621Z,11.50
2024-02-14T15:35:59.251Z,13.10
2024-02-14T15:38:31.922Z,11.40
2024-02-14T15:41:05.770Z,13.00
2024-02-14T15:43:38.315Z,15.90
2024-02-14T15:46:10.652Z,13.50
2024-02-14T15:48:43.568Z,12.70
2024-02-14T15:51:19.051Z,12.30
2024-02-14T15:53:51.581Z,12.90
2024-02-14T15:56:24.893Z,10.30
2024-02-14T15:58:58.766Z,12.80
2024-02-14T16:01:30.990Z,13.20
2024-02-14T16:04:03.294Z,12.40
2024-02-14T16:06:36.457Z,14.00
2024-02-14T16:09:10.348Z,14.20
2024-02-14T16:11:43.804Z,14.50
2024-02-14T16:14:18.208Z,16.00
2024-02-14T16:16:51.039Z,14.40
2024-02-14T16:19:23.304Z,15.00
2024-02-14T16:22:02.383Z,15.50
2024-02-14T16:24:42.329Z,13.90
2024-02-14T16:27:15.117Z,16.40
2024-02-14T16:29:47.884Z,16.90
2024-02-14T16:32:20.918Z,14.20
2024-02-14T16:34:53.219Z,12.70
2024-02-14T16:37:25.504Z,15.70
2024-02-14T16:39:58.433Z,15.70
2024-02-14T16:42:30.927Z,16.40
2024-02-14T16:45:05.531Z,18.80
2024-02-14T16:47:38.653Z,20.00
2024-02-14T16:50:11.880Z,19.60
2024-02-14T16:52:44.263Z,19.50
2024-02-14T16:55:16.533Z,22.40
2024-02-14T16:57:48.846Z,16.10
2024-02-14T17:00:22.742Z,17.30
2024-02-14T17:02:55.249Z,19.50
2024-02-14T17:05:28.019Z,17.80
2024-02-14T17:08:00.654Z,20.00
2024-02-14T17:10:33.183Z,20.90
2024-02-14T17:13:05.673Z,21.10
2024-02-14T17:15:38.202Z,22.00
2024-02-14T17:18:10.994Z,19.90
2024-02-14T17:20:44.293Z,19.20
2024-02-14T17:23:17.015Z,21.40
2024-02-14T17:25:50.504Z,20.00
2024-02-14T17:28:22.917Z,19.10
2024-02-14T17:30:55.198Z,22.20
2024-02-14T17:33:27.791Z,17.20
2024-02-14T17:36:00.198Z,18.80
2024-02-14T17:38:33.072Z,19.80
2024-02-14T17:41:05.714Z,20.40
2024-02-14T17:43:38.307Z,20.90
2024-02-14T17:46:11.783Z,20.40
2024-02-14T17:48:44.315Z,22.50
2024-02-14T17:51:17.357Z,17.70
2024-02-14T17:53:50.814Z,14.90
2024-02-14T17:56:26.276Z,14.60
2024-02-14T17:58:58.780Z,14.30
2024-02-14T18:01:31.094Z,15.00
2024-02-14T18:04:06.030Z,12.50
2024-02-14T18:06:40.162Z,14.20
2024-02-14T18:09:13.026Z,15.50
2024-02-14T18:11:45.922Z,11.00
2024-02-14T18:14:18.678Z,14.20
2024-02-14T18:16:52.438Z,14.30
2024-02-14T18:19:24.889Z,13.70
2024-02-14T18:21:57.785Z,16.80
2024-02-14T18:24:30.053Z,12.60
2024-02-14T18:27:02.598Z,13.30
2024-02-14T18:29:35.279Z,14.50
2024-02-14T18:32:09.605Z,16.80
2024-02-14T18:34:42.258Z,15.40
2024-02-14T18:37:14.787Z,13.70
2024-02-14T18:39:47.140Z,14.10
2024-02-14T18:42:19.476Z,14.20
2024-02-14T18:44:51.888Z,17.10
2024-02-14T18:47:24.880Z,17.50
2024-02-14T18:49:57.265Z,17.20
2024-02-14T18:52:29.563Z,16.00
2024-02-14T18:55:02.034Z,15.60
2024-02-14T18:57:34.570Z,15.20
2024-02-14T19:00:11.452Z,17.10
2024-02-14T19:02:44.357Z,15.70
2024-02-14T19:05:16.921Z,19.10
2024-02-14T19:07:49.280Z,16.70
2024-02-14T19:10:22.114Z,16.50
2024-02-14T19:12:54.533Z,18.50
2024-02-14T19:15:26.892Z,17.00
2024-02-14T19:17:59.266Z,17.70
2024-02-14T19:20:32.126Z,19.60
2024-02-14T19:23:08.339Z,16.80
2024-02-14T19:25:40.747Z,17.90
2024-02-14T19:28:13.468Z,18.60
2024-02-14T19:30:45.982Z,16.70
2024-02-14T19:33:19.237Z,14.70
2024-02-14T19:35:54.840Z,15.40
2024-02-14T19:38:29.370Z,17.20
2024-02-14T19:41:03.951Z,12.30
2024-02-14T19:43:39.909Z,13.20
2024-02-14T19:46:13.441Z,14.10
2024-02-14T19:48:46.217Z,14.90
2024-02-14T19:51:20.351Z,12.90
2024-02-14T19:53:52.926Z,13.00
2024-02-14T19:56:25.716Z,14.50
2024-02-14T19:58:58.001Z,12.30
2024-02-14T20:01:30.188Z,12.30
2024-02-14T20:04:02.937Z,13.30
2024-02-14T20:06:35.506Z,14.20
2024-02-14T20:09:08.716Z,14.50
2024-02-14T20:11:41.206Z,15.50
2024-02-14T20:14:13.675Z,17.10
2024-02-14T20:16:47.881Z,16.40
2024-02-14T20:19:20.646Z,15.50
2024-02-14T20:21:53.177Z,15.70
2024-02-14T20:24:26.361Z,18.50
2024-02-14T20:26:58.825Z,19.80
2024-02-14T20:29:31.251Z,18.10
2024-02-14T20:32:04.024Z,20.40
2024-02-14T20:34:36.551Z,19.80
2024-02-14T20:37:09.787Z,17.00
2024-02-14T20:39:42.124Z,23.50
2024-02-14T20:42:16.128Z,21.10
2024-02-14T20:44:48.834Z,23.20
2024-02-14T20:47:21.179Z,19.60
2024-02-14T20:49:53.847Z,20.60
2024-02-14T20:52:26.440Z,15.90
2024-02-14T20:54:59.718Z,14.80
2024-02-14T20:57:32.070Z,16.60
2024-02-14T21:00:10.080Z,15.70
2024-02-14T21:05:15.062Z,14.00
2024-02-14T21:07:47.609Z,14.90
2024-02-14T21:10:21.147Z,15.20
2024-02-14T21:12:53.907Z,15.20
2024-02-14T21:15:26.809Z,14.10
2024-02-14T21:17:59.513Z,11.50
2024-02-14T21:20:32.300Z,14.90
2024-02-14T21:23:04.781Z,14.10
2024-02-14T21:25:37.789Z,15.60
2024-02-14T21:28:10.899Z,14.60
2024-02-14T21:30:43.181Z,13.70
2024-02-14T21:33:15.669Z,14.30
2024-02-14T21:35:50.684Z,14.50
2024-02-14T21:38:23.195Z,14.40
2024-02-14T21:40:55.502Z,15.20
2024-02-14T21:43:27.928Z,15.90
2024-02-14T21:46:00.254Z,14.00
2024-02-14T21:48:32.943Z,14.70
2024-02-14T21:51:10.691Z,13.50
2024-02-14T21:53:43.292Z,13.50
2024-02-14T21:56:16.817Z,15.30
2024-02-14T21:58:49.330Z,14.30
2024-02-14T22:01:21.857Z,16.70
2024-02-14T22:03:54.437Z,12.80
2024-02-14T22:06:27.059Z,14.90
2024-02-14T22:08:59.724Z,14.50
2024-02-14T22:11:32.400Z,17.60
2024-02-14T22:14:05.291Z,12.50
2024-02-14T22:16:38.685Z,16.40
2024-02-14T22:19:14.052Z,13.30
2024-02-14T22:21:47.024Z,12.30
2024-02-14T22:24:19.526Z,12.00
2024-02-14T22:26:52.143Z,14.70
2024-02-14T22:29:24.656Z,10.80
2024-02-14T22:31:57.085Z,12.40
2024-02-14T22:34:29.565Z,13.80
2024-02-14T22:37:05.140Z,11.00
2024-02-14T22:39:37.612Z,11.20
2024-02-14T22:42:10.510Z,15.30
2024-02-14T22:44:43.087Z,12.50
2024-02-14T22:47:15.756Z,15.60
2024-02-14T22:49:48.394Z,11.30
2024-02-14T22:52:23.224Z,11.80
2024-02-14T22:54:55.577Z,11.10
2024-02-14T22:57:28.269Z,12.00
2024-02-14T23:00:00.902Z,11.70
2024-02-14T23:02:34.158Z,12.60
2024-02-14T23:05:08.422Z,9.90
2024-02-14T23:07:41.072Z,13.60
2024-02-14T23:10:13.888Z,12.30
2024-02-14T23:12:46.642Z,10.10
2024-02-14T23:15:19.714Z,12.00
2024-02-14T23:17:52.251Z,8.50
2024-02-14T23:20:24.669Z,10.40
2024-02-14T23:22:57.588Z,14.50
2024-02-14T23:25:33.638Z,11.60
2024-02-14T23:28:06.227Z,11.50
2024-02-14T23:30:41.041Z,10.40
2024-02-14T23:33:14.411Z,11.40
2024-02-14T23:35:47.194Z,13.50
2024-02-14T23:38:20.672Z,11.30
2024-02-14T23:40:53.236Z,14.50
2024-02-14T23:43:25.709Z,12.60
2024-02-14T23:45:58.063Z,13.10
2024-02-14T23:48:30.528Z,13.30
2024-02-14T23:51:03.714Z,11.50
2024-02-14T23:53:36.095Z,13.60
2024-02-14T23:56:09.323Z,11.60
2024-02-14T23:58:41.692Z,12.50
